sensor_id;sensor_type;location;lat;lon;timestamp;pressure;altitude;pressure_sealevel;temperature;humidity
70930;BME280;58588;48.102;19.682;2023-12-28T00:02:17;100248.63;;;9.51;85.09
70930;BME280;58588;48.102;19.682;2023-12-28T00:05:19;100255.16;;;9.75;84.93
70930;BME280;58588;48.102;19.682;2023-12-28T00:08:23;100249.53;;;9.60;84.75
70930;BME280;58588;48.102;19.682;2023-12-28T00:11:24;100249.13;;;9.81;84.70
70930;BME280;58588;48.102;19.682;2023-12-28T00:14:26;100243.19;;;9.69;84.50
70930;BME280;58588;48.102;19.682;2023-12-28T00:17:30;100247.31;;;9.55;85.17
70930;BME280;58588;48.102;19.682;2023-12-28T00:20:32;100239.06;;;9.23;86.51
70930;BME280;58588;48.102;19.682;2023-12-28T00:23:35;100233.59;;;9.06;86.68
70930;BME280;58588;48.102;19.682;2023-12-28T00:26:37;100236.16;;;9.16;85.62
70930;BME280;58588;48.102;19.682;2023-12-28T00:29:39;100238.75;;;9.26;86.73
70930;BME280;58588;48.102;19.682;2023-12-28T00:32:41;100240.19;;;9.46;84.72
70930;BME280;58588;48.102;19.682;2023-12-28T00:35:44;100247.56;;;9.36;84.60
70930;BME280;58588;48.102;19.682;2023-12-28T00:38:47;100252.50;;;9.23;85.73
70930;BME280;58588;48.102;19.682;2023-12-28T00:41:49;100256.63;;;8.83;87.19
70930;BME280;58588;48.102;19.682;2023-12-28T00:44:51;100263.00;;;9.08;86.57
70930;BME280;58588;48.102;19.682;2023-12-28T00:47:53;100260.19;;;8.92;86.36
70930;BME280;58588;48.102;19.682;2023-12-28T00:50:57;100259.63;;;9.32;85.87
70930;BME280;58588;48.102;19.682;2023-12-28T00:54:00;100266.88;;;9.31;85.84
70930;BME280;58588;48.102;19.682;2023-12-28T00:57:03;100267.84;;;9.04;87.19
70930;BME280;58588;48.102;19.682;2023-12-28T01:00:06;100267.75;;;9.14;87.68
70930;BME280;58588;48.102;19.682;2023-12-28T01:03:08;100275.69;;;8.98;87.82
70930;BME280;58588;48.102;19.682;2023-12-28T01:06:10;100274.19;;;8.95;88.66
70930;BME280;58588;48.102;19.682;2023-12-28T01:09:13;100283.56;;;9.17;87.00
70930;BME280;58588;48.102;19.682;2023-12-28T01:12:16;100283.06;;;9.14;87.27
70930;BME280;58588;48.102;19.682;2023-12-28T01:15:18;100279.28;;;9.24;87.28
70930;BME280;58588;48.102;19.682;2023-12-28T01:18:21;100276.19;;;9.45;86.36
70930;BME280;58588;48.102;19.682;2023-12-28T01:21:22;100272.69;;;9.53;86.34
70930;BME280;58588;48.102;19.682;2023-12-28T01:24:26;100275.19;;;8.94;87.92
70930;BME280;58588;48.102;19.682;2023-12-28T01:27:28;100275.34;;;9.45;86.90
70930;BME280;58588;48.102;19.682;2023-12-28T01:30:30;100274.78;;;9.33;86.22
70930;BME280;58588;48.102;19.682;2023-12-28T01:33:32;100264.34;;;9.30;86.72
70930;BME280;58588;48.102;19.682;2023-12-28T01:36:34;100269.50;;;9.23;85.75
70930;BME280;58588;48.102;19.682;2023-12-28T01:39:38;100266.47;;;9.18;86.28
70930;BME280;58588;48.102;19.682;2023-12-28T01:42:40;100265.63;;;9.18;85.56
70930;BME280;58588;48.102;19.682;2023-12-28T01:45:42;100255.63;;;9.36;84.85
70930;BME280;58588;48.102;19.682;2023-12-28T01:48:45;100260.03;;;9.45;84.25
70930;BME280;58588;48.102;19.682;2023-12-28T01:51:48;100269.44;;;9.67;83.08
70930;BME280;58588;48.102;19.682;2023-12-28T01:54:52;100254.47;;;9.73;82.56
70930;BME280;58588;48.102;19.682;2023-12-28T01:57:55;100246.22;;;9.74;82.62
70930;BME280;58588;48.102;19.682;2023-12-28T02:00:58;100253.84;;;9.87;82.05
70930;BME280;58588;48.102;19.682;2023-12-28T02:04:01;100261.91;;;9.79;82.01
70930;BME280;58588;48.102;19.682;2023-12-28T02:07:03;100253.28;;;9.75;82.74
70930;BME280;58588;48.102;19.682;2023-12-28T02:10:08;100251.09;;;9.71;82.64
70930;BME280;58588;48.102;19.682;2023-12-28T02:13:10;100255.81;;;9.77;82.34
70930;BME280;58588;48.102;19.682;2023-12-28T02:16:15;100243.84;;;9.71;82.54
70930;BME280;58588;48.102;19.682;2023-12-28T02:19:25;100250.50;;;9.51;83.12
70930;BME280;58588;48.102;19.682;2023-12-28T02:22:34;100250.38;;;9.60;82.25
70930;BME280;58588;48.102;19.682;2023-12-28T02:25:37;100248.09;;;9.14;82.84
70930;BME280;58588;48.102;19.682;2023-12-28T02:28:39;100241.78;;;9.05;84.77
70930;BME280;58588;48.102;19.682;2023-12-28T02:31:46;100226.44;;;9.23;84.01
70930;BME280;58588;48.102;19.682;2023-12-28T02:34:58;100233.38;;;9.26;82.98
70930;BME280;58588;48.102;19.682;2023-12-28T02:38:06;100230.53;;;9.01;83.88
70930;BME280;58588;48.102;19.682;2023-12-28T02:41:11;100223.38;;;8.92;83.78
70930;BME280;58588;48.102;19.682;2023-12-28T02:44:14;100229.50;;;8.76;83.90
70930;BME280;58588;48.102;19.682;2023-12-28T02:47:16;100224.28;;;8.39;84.82
70930;BME280;58588;48.102;19.682;2023-12-28T02:50:18;100217.81;;;8.32;85.30
70930;BME280;58588;48.102;19.682;2023-12-28T02:53:20;100218.75;;;8.23;85.71
70930;BME280;58588;48.102;19.682;2023-12-28T02:56:23;100217.44;;;8.27;85.82
70930;BME280;58588;48.102;19.682;2023-12-28T02:59:25;100210.44;;;7.98;86.33
70930;BME280;58588;48.102;19.682;2023-12-28T03:02:27;100216.03;;;7.87;86.38
70930;BME280;58588;48.102;19.682;2023-12-28T03:05:30;100210.28;;;8.00;85.90
70930;BME280;58588;48.102;19.682;2023-12-28T03:08:32;100210.06;;;7.93;85.48
70930;BME280;58588;48.102;19.682;2023-12-28T03:11:35;100211.69;;;7.49;87.58
70930;BME280;58588;48.102;19.682;2023-12-28T03:14:37;100210.50;;;7.61;87.07
70930;BME280;58588;48.102;19.682;2023-12-28T03:17:39;100219.50;;;7.05;87.92
70930;BME280;58588;48.102;19.682;2023-12-28T03:20:41;100211.28;;;7.07;89.49
70930;BME280;58588;48.102;19.682;2023-12-28T03:23:43;100206.25;;;7.04;88.11
70930;BME280;58588;48.102;19.682;2023-12-28T03:26:46;100191.31;;;6.91;89.59
70930;BME280;58588;48.102;19.682;2023-12-28T03:29:48;100187.16;;;7.07;88.68
70930;BME280;58588;48.102;19.682;2023-12-28T03:32:50;100191.94;;;7.13;88.35
70930;BME280;58588;48.102;19.682;2023-12-28T03:35:52;100182.41;;;7.01;87.66
70930;BME280;58588;48.102;19.682;2023-12-28T03:38:54;100182.13;;;7.04;88.45
70930;BME280;58588;48.102;19.682;2023-12-28T03:41:57;100180.66;;;6.53;89.64
70930;BME280;58588;48.102;19.682;2023-12-28T03:44:59;100181.63;;;6.81;89.26
70930;BME280;58588;48.102;19.682;2023-12-28T03:48:01;100176.72;;;6.66;89.33
70930;BME280;58588;48.102;19.682;2023-12-28T03:51:04;100178.97;;;6.61;87.99
70930;BME280;58588;48.102;19.682;2023-12-28T03:54:06;100169.75;;;6.83;88.24
70930;BME280;58588;48.102;19.682;2023-12-28T03:57:09;100167.69;;;6.58;88.61
70930;BME280;58588;48.102;19.682;2023-12-28T04:00:11;100165.84;;;6.58;89.50
70930;BME280;58588;48.102;19.682;2023-12-28T04:03:15;100168.53;;;6.68;88.99
70930;BME280;58588;48.102;19.682;2023-12-28T04:06:17;100166.28;;;6.63;87.05
70930;BME280;58588;48.102;19.682;2023-12-28T04:09:19;100158.97;;;6.56;87.82
70930;BME280;58588;48.102;19.682;2023-12-28T04:12:22;100163.03;;;6.69;87.54
70930;BME280;58588;48.102;19.682;2023-12-28T04:15:25;100177.56;;;6.57;87.92
70930;BME280;58588;48.102;19.682;2023-12-28T04:18:27;100168.41;;;6.40;87.27
70930;BME280;58588;48.102;19.682;2023-12-28T04:21:29;100168.56;;;6.29;87.65
70930;BME280;58588;48.102;19.682;2023-12-28T04:24:31;100170.09;;;6.41;85.90
70930;BME280;58588;48.102;19.682;2023-12-28T04:27:34;100164.91;;;6.11;86.89
70930;BME280;58588;48.102;19.682;2023-12-28T04:30:36;100169.78;;;5.86;88.11
70930;BME280;58588;48.102;19.682;2023-12-28T04:33:38;100157.81;;;5.71;89.23
70930;BME280;58588;48.102;19.682;2023-12-28T04:36:40;100155.41;;;5.68;90.39
70930;BME280;58588;48.102;19.682;2023-12-28T04:39:43;100163.00;;;5.53;89.58
70930;BME280;58588;48.102;19.682;2023-12-28T04:42:46;100161.31;;;5.62;90.25
70930;BME280;58588;48.102;19.682;2023-12-28T04:45:48;100159.34;;;5.74;89.03
70930;BME280;58588;48.102;19.682;2023-12-28T04:48:50;100148.91;;;5.61;88.36
70930;BME280;58588;48.102;19.682;2023-12-28T04:51:52;100147.25;;;5.79;89.25
70930;BME280;58588;48.102;19.682;2023-12-28T04:54:54;100143.16;;;5.66;88.59
70930;BME280;58588;48.102;19.682;2023-12-28T04:57:57;100145.00;;;5.75;88.10
70930;BME280;58588;48.102;19.682;2023-12-28T05:01:01;100141.44;;;5.55;86.81
70930;BME280;58588;48.102;19.682;2023-12-28T05:04:03;100132.88;;;5.61;86.67
70930;BME280;58588;48.102;19.682;2023-12-28T05:07:05;100135.53;;;5.61;86.66
70930;BME280;58588;48.102;19.682;2023-12-28T05:10:07;100130.06;;;5.53;85.98
70930;BME280;58588;48.102;19.682;2023-12-28T05:13:11;100129.63;;;5.48;86.64
70930;BME280;58588;48.102;19.682;2023-12-28T05:16:13;100130.16;;;5.42;85.44
70930;BME280;58588;48.102;19.682;2023-12-28T05:19:15;100135.75;;;5.29;86.89
70930;BME280;58588;48.102;19.682;2023-12-28T05:22:17;100129.72;;;5.36;87.68
70930;BME280;58588;48.102;19.682;2023-12-28T05:25:18;100124.88;;;5.21;88.24
70930;BME280;58588;48.102;19.682;2023-12-28T05:28:22;100127.59;;;5.30;87.14
70930;BME280;58588;48.102;19.682;2023-12-28T05:31:24;100132.38;;;5.27;86.03
70930;BME280;58588;48.102;19.682;2023-12-28T05:34:26;100132.44;;;5.06;86.27
70930;BME280;58588;48.102;19.682;2023-12-28T05:37:27;100141.31;;;5.06;86.15
70930;BME280;58588;48.102;19.682;2023-12-28T05:40:30;100141.00;;;5.00;86.77
70930;BME280;58588;48.102;19.682;2023-12-28T05:43:33;100142.44;;;5.04;86.16
70930;BME280;58588;48.102;19.682;2023-12-28T05:46:35;100141.78;;;4.91;86.46
70930;BME280;58588;48.102;19.682;2023-12-28T05:49:37;100140.59;;;4.74;87.46
70930;BME280;58588;48.102;19.682;2023-12-28T05:52:39;100157.19;;;4.77;87.35
70930;BME280;58588;48.102;19.682;2023-12-28T05:55:41;100151.28;;;4.74;87.30
70930;BME280;58588;48.102;19.682;2023-12-28T05:58:45;100156.75;;;4.72;86.81
70930;BME280;58588;48.102;19.682;2023-12-28T06:01:46;100157.91;;;4.79;86.68
70930;BME280;58588;48.102;19.682;2023-12-28T06:04:48;100147.63;;;4.75;87.24
70930;BME280;58588;48.102;19.682;2023-12-28T06:07:50;100157.91;;;4.79;86.22
70930;BME280;58588;48.102;19.682;2023-12-28T06:10:52;100161.19;;;4.62;86.74
70930;BME280;58588;48.102;19.682;2023-12-28T06:13:56;100154.34;;;4.69;86.76
70930;BME280;58588;48.102;19.682;2023-12-28T06:16:58;100155.72;;;4.43;86.75
70930;BME280;58588;48.102;19.682;2023-12-28T06:19:59;100166.31;;;4.54;86.82
70930;BME280;58588;48.102;19.682;2023-12-28T06:23:01;100160.53;;;4.70;85.92
70930;BME280;58588;48.102;19.682;2023-12-28T06:26:07;100160.09;;;4.44;86.52
70930;BME280;58588;48.102;19.682;2023-12-28T06:29:13;100174.16;;;4.46;87.83
70930;BME280;58588;48.102;19.682;2023-12-28T06:32:17;100158.91;;;4.57;87.99
70930;BME280;58588;48.102;19.682;2023-12-28T06:35:19;100173.34;;;4.76;87.61
70930;BME280;58588;48.102;19.682;2023-12-28T06:38:21;100187.31;;;4.59;86.45
70930;BME280;58588;48.102;19.682;2023-12-28T06:41:23;100179.41;;;4.15;86.83
70930;BME280;58588;48.102;19.682;2023-12-28T06:44:27;100173.50;;;4.33;87.08
70930;BME280;58588;48.102;19.682;2023-12-28T06:47:28;100179.69;;;4.33;87.03
70930;BME280;58588;48.102;19.682;2023-12-28T06:50:30;100189.47;;;4.44;86.63
70930;BME280;58588;48.102;19.682;2023-12-28T06:53:32;100188.06;;;4.28;86.41
70930;BME280;58588;48.102;19.682;2023-12-28T06:56:34;100191.34;;;4.53;86.92
70930;BME280;58588;48.102;19.682;2023-12-28T06:59:38;100185.16;;;4.52;86.60
70930;BME280;58588;48.102;19.682;2023-12-28T07:02:40;100184.44;;;4.71;85.96
70930;BME280;58588;48.102;19.682;2023-12-28T07:05:42;100186.56;;;4.36;87.04
70930;BME280;58588;48.102;19.682;2023-12-28T07:08:44;100186.84;;;4.53;87.94
70930;BME280;58588;48.102;19.682;2023-12-28T07:11:46;100183.25;;;4.64;87.93
70930;BME280;58588;48.102;19.682;2023-12-28T07:14:49;100188.88;;;4.92;87.19
70930;BME280;58588;48.102;19.682;2023-12-28T07:17:51;100198.97;;;4.57;86.78
70930;BME280;58588;48.102;19.682;2023-12-28T07:20:53;100202.53;;;4.68;86.36
70930;BME280;58588;48.102;19.682;2023-12-28T07:23:55;100200.44;;;4.71;86.89
70930;BME280;58588;48.102;19.682;2023-12-28T07:26:57;100191.13;;;4.87;87.10
70930;BME280;58588;48.102;19.682;2023-12-28T07:30:00;100199.19;;;4.96;86.47
70930;BME280;58588;48.102;19.682;2023-12-28T07:33:02;100205.69;;;5.03;87.20
70930;BME280;58588;48.102;19.682;2023-12-28T07:36:05;100211.78;;;4.84;87.22
70930;BME280;58588;48.102;19.682;2023-12-28T07:39:07;100219.50;;;5.08;86.79
70930;BME280;58588;48.102;19.682;2023-12-28T07:42:09;100225.38;;;5.02;86.64
70930;BME280;58588;48.102;19.682;2023-12-28T07:45:12;100213.16;;;5.30;86.52
70930;BME280;58588;48.102;19.682;2023-12-28T07:48:14;100209.03;;;5.26;87.87
70930;BME280;58588;48.102;19.682;2023-12-28T07:51:16;100205.59;;;5.15;89.53
70930;BME280;58588;48.102;19.682;2023-12-28T07:54:18;100203.44;;;5.39;89.15
70930;BME280;58588;48.102;19.682;2023-12-28T07:57:20;100189.44;;;5.56;87.70
70930;BME280;58588;48.102;19.682;2023-12-28T08:00:24;100194.88;;;5.35;89.16
70930;BME280;58588;48.102;19.682;2023-12-28T08:03:26;100195.91;;;5.14;90.22
70930;BME280;58588;48.102;19.682;2023-12-28T08:06:28;100196.91;;;5.62;89.51
70930;BME280;58588;48.102;19.682;2023-12-28T08:09:32;100204.44;;;5.07;91.12
70930;BME280;58588;48.102;19.682;2023-12-28T08:12:35;100192.41;;;5.63;90.24
70930;BME280;58588;48.102;19.682;2023-12-28T08:15:38;100186.91;;;5.55;91.06
70930;BME280;58588;48.102;19.682;2023-12-28T08:18:40;100180.13;;;5.41;92.70
70930;BME280;58588;48.102;19.682;2023-12-28T08:21:42;100190.81;;;5.91;91.07
70930;BME280;58588;48.102;19.682;2023-12-28T08:24:44;100196.81;;;5.74;91.15
70930;BME280;58588;48.102;19.682;2023-12-28T08:27:48;100192.97;;;6.07;91.50
70930;BME280;58588;48.102;19.682;2023-12-28T08:30:51;100190.81;;;6.10;93.42
70930;BME280;58588;48.102;19.682;2023-12-28T08:33:55;100179.44;;;6.18;93.46
70930;BME280;58588;48.102;19.682;2023-12-28T08:36:57;100183.22;;;6.54;91.87
70930;BME280;58588;48.102;19.682;2023-12-28T08:39:59;100187.44;;;6.66;92.16
70930;BME280;58588;48.102;19.682;2023-12-28T08:43:01;100186.72;;;6.64;91.72
70930;BME280;58588;48.102;19.682;2023-12-28T08:46:07;100200.53;;;6.69;91.89
70930;BME280;58588;48.102;19.682;2023-12-28T08:49:09;100196.22;;;7.06;90.92
70930;BME280;58588;48.102;19.682;2023-12-28T08:52:11;100202.59;;;6.95;90.93
70930;BME280;58588;48.102;19.682;2023-12-28T08:55:13;100202.63;;;7.32;89.66
70930;BME280;58588;48.102;19.682;2023-12-28T08:58:15;100192.19;;;7.57;89.46
70930;BME280;58588;48.102;19.682;2023-12-28T09:01:19;100195.69;;;7.85;87.84
70930;BME280;58588;48.102;19.682;2023-12-28T09:04:22;100182.28;;;8.02;87.43
70930;BME280;58588;48.102;19.682;2023-12-28T09:07:24;100181.28;;;8.03;88.19
70930;BME280;58588;48.102;19.682;2023-12-28T09:10:25;100172.88;;;8.16;88.30
70930;BME280;58588;48.102;19.682;2023-12-28T09:13:27;100166.13;;;8.48;88.76
70930;BME280;58588;48.102;19.682;2023-12-28T09:16:33;100153.91;;;8.79;88.61
70930;BME280;58588;48.102;19.682;2023-12-28T09:19:35;100143.94;;;8.98;87.35
70930;BME280;58588;48.102;19.682;2023-12-28T09:22:40;100143.13;;;8.71;87.71
70930;BME280;58588;48.102;19.682;2023-12-28T09:25:42;100132.81;;;9.27;88.55
70930;BME280;58588;48.102;19.682;2023-12-28T09:28:44;100129.38;;;9.51;88.02
70930;BME280;58588;48.102;19.682;2023-12-28T09:31:47;100137.53;;;9.75;88.08
70930;BME280;58588;48.102;19.682;2023-12-28T09:34:49;100138.63;;;10.23;86.99
70930;BME280;58588;48.102;19.682;2023-12-28T09:37:51;100124.66;;;10.36;85.58
70930;BME280;58588;48.102;19.682;2023-12-28T09:40:54;100124.63;;;10.11;85.03
70930;BME280;58588;48.102;19.682;2023-12-28T09:44:07;100113.03;;;10.27;85.52
70930;BME280;58588;48.102;19.682;2023-12-28T09:47:13;100120.75;;;10.63;84.31
70930;BME280;58588;48.102;19.682;2023-12-28T09:50:18;100105.47;;;11.03;83.45
70930;BME280;58588;48.102;19.682;2023-12-28T09:53:21;100090.59;;;11.15;83.06
70930;BME280;58588;48.102;19.682;2023-12-28T09:56:24;100093.19;;;11.00;82.34
70930;BME280;58588;48.102;19.682;2023-12-28T09:59:26;100085.09;;;11.39;81.01
70930;BME280;58588;48.102;19.682;2023-12-28T10:02:39;100084.19;;;11.78;79.06
70930;BME280;58588;48.102;19.682;2023-12-28T10:05:45;100075.59;;;11.83;80.37
70930;BME280;58588;48.102;19.682;2023-12-28T10:08:48;100066.75;;;12.12;80.84
70930;BME280;58588;48.102;19.682;2023-12-28T10:11:56;100072.53;;;12.23;76.10
70930;BME280;58588;48.102;19.682;2023-12-28T10:15:20;100079.06;;;12.14;76.77
70930;BME280;58588;48.102;19.682;2023-12-28T10:18:40;100065.16;;;12.70;79.88
70930;BME280;58588;48.102;19.682;2023-12-28T10:21:44;100064.63;;;12.74;77.42
70930;BME280;58588;48.102;19.682;2023-12-28T10:24:46;100064.44;;;12.91;75.35
70930;BME280;58588;48.102;19.682;2023-12-28T10:27:50;100059.78;;;12.84;74.67
70930;BME280;58588;48.102;19.682;2023-12-28T10:30:56;100052.59;;;13.21;73.80
70930;BME280;58588;48.102;19.682;2023-12-28T10:34:00;100053.56;;;13.50;76.68
70930;BME280;58588;48.102;19.682;2023-12-28T10:37:03;100051.00;;;13.27;75.80
70930;BME280;58588;48.102;19.682;2023-12-28T10:40:07;100047.47;;;13.48;75.17
70930;BME280;58588;48.102;19.682;2023-12-28T10:43:16;100052.03;;;13.62;70.24
70930;BME280;58588;48.102;19.682;2023-12-28T10:46:24;100033.59;;;13.36;72.64
70930;BME280;58588;48.102;19.682;2023-12-28T10:49:30;100033.13;;;13.18;75.84
70930;BME280;58588;48.102;19.682;2023-12-28T10:52:36;100023.44;;;13.23;73.77
70930;BME280;58588;48.102;19.682;2023-12-28T10:55:43;100027.25;;;14.08;74.48
70930;BME280;58588;48.102;19.682;2023-12-28T10:58:49;100022.56;;;13.74;73.19
70930;BME280;58588;48.102;19.682;2023-12-28T11:01:54;100021.13;;;13.99;72.06
70930;BME280;58588;48.102;19.682;2023-12-28T11:05:00;100011.72;;;13.74;72.52
70930;BME280;58588;48.102;19.682;2023-12-28T11:08:05;99999.28;;;14.07;71.73
70930;BME280;58588;48.102;19.682;2023-12-28T11:11:09;99994.88;;;14.28;69.80
70930;BME280;58588;48.102;19.682;2023-12-28T11:14:11;99990.38;;;14.41;70.22
70930;BME280;58588;48.102;19.682;2023-12-28T11:17:16;99997.00;;;13.83;71.63
70930;BME280;58588;48.102;19.682;2023-12-28T11:20:20;99992.00;;;14.36;72.86
70930;BME280;58588;48.102;19.682;2023-12-28T11:23:23;99988.41;;;14.57;70.97
70930;BME280;58588;48.102;19.682;2023-12-28T11:26:26;99979.56;;;13.92;74.28
70930;BME280;58588;48.102;19.682;2023-12-28T11:29:29;99966.28;;;14.53;69.72
70930;BME280;58588;48.102;19.682;2023-12-28T11:32:32;99965.22;;;14.54;68.41
70930;BME280;58588;48.102;19.682;2023-12-28T11:35:36;99957.28;;;14.25;70.63
70930;BME280;58588;48.102;19.682;2023-12-28T11:38:49;99947.34;;;14.38;72.57
70930;BME280;58588;48.102;19.682;2023-12-28T11:42:08;99940.06;;;14.73;69.04
70930;BME280;58588;48.102;19.682;2023-12-28T11:45:10;99937.72;;;14.29;71.06
70930;BME280;58588;48.102;19.682;2023-12-28T11:48:22;99935.63;;;15.07;66.97
70930;BME280;58588;48.102;19.682;2023-12-28T11:51:26;99937.88;;;14.97;67.68
70930;BME280;58588;48.102;19.682;2023-12-28T11:54:28;99921.66;;;15.23;68.73
70930;BME280;58588;48.102;19.682;2023-12-28T11:57:30;99927.28;;;14.61;67.96
70930;BME280;58588;48.102;19.682;2023-12-28T12:00:32;99922.44;;;14.22;69.93
70930;BME280;58588;48.102;19.682;2023-12-28T12:03:34;99921.19;;;14.24;70.12
70930;BME280;58588;48.102;19.682;2023-12-28T12:06:37;99924.22;;;14.42;69.93
70930;BME280;58588;48.102;19.682;2023-12-28T12:09:39;99919.00;;;14.76;68.39
70930;BME280;58588;48.102;19.682;2023-12-28T12:12:41;99913.41;;;14.90;70.58
70930;BME280;58588;48.102;19.682;2023-12-28T12:15:44;99910.97;;;15.09;67.39
70930;BME280;58588;48.102;19.682;2023-12-28T12:18:46;99912.47;;;15.18;67.02
70930;BME280;58588;48.102;19.682;2023-12-28T12:21:50;99908.31;;;15.48;68.03
70930;BME280;58588;48.102;19.682;2023-12-28T12:24:51;99904.31;;;15.24;68.77
70930;BME280;58588;48.102;19.682;2023-12-28T12:27:55;99903.66;;;15.16;70.34
70930;BME280;58588;48.102;19.682;2023-12-28T12:30:57;99894.34;;;15.65;67.96
70930;BME280;58588;48.102;19.682;2023-12-28T12:34:01;99892.66;;;16.03;67.14
70930;BME280;58588;48.102;19.682;2023-12-28T12:37:05;99892.88;;;16.02;64.92
70930;BME280;58588;48.102;19.682;2023-12-28T12:40:08;99878.06;;;15.78;69.22
70930;BME280;58588;48.102;19.682;2023-12-28T12:43:10;99887.03;;;15.72;66.93
70930;BME280;58588;48.102;19.682;2023-12-28T12:46:12;99881.78;;;15.64;67.41
70930;BME280;58588;48.102;19.682;2023-12-28T12:49:16;99879.94;;;15.84;67.18
70930;BME280;58588;48.102;19.682;2023-12-28T12:52:19;99875.50;;;15.50;67.35
70930;BME280;58588;48.102;19.682;2023-12-28T12:55:24;99873.63;;;15.44;67.96
70930;BME280;58588;48.102;19.682;2023-12-28T12:58:26;99872.16;;;15.61;66.61
70930;BME280;58588;48.102;19.682;2023-12-28T13:01:31;99865.69;;;15.75;68.15
70930;BME280;58588;48.102;19.682;2023-12-28T13:04:32;99862.53;;;15.32;68.90
70930;BME280;58588;48.102;19.682;2023-12-28T13:07:36;99866.28;;;16.11;65.26
70930;BME280;58588;48.102;19.682;2023-12-28T13:10:38;99870.53;;;15.67;68.76
70930;BME280;58588;48.102;19.682;2023-12-28T13:13:40;99875.50;;;15.43;66.78
70930;BME280;58588;48.102;19.682;2023-12-28T13:16:42;99875.53;;;15.63;65.22
70930;BME280;58588;48.102;19.682;2023-12-28T13:19:44;99877.41;;;15.69;65.93
70930;BME280;58588;48.102;19.682;2023-12-28T13:22:47;99879.47;;;15.54;65.73
70930;BME280;58588;48.102;19.682;2023-12-28T13:25:50;99885.75;;;15.55;65.50
70930;BME280;58588;48.102;19.682;2023-12-28T13:28:52;99883.66;;;15.30;67.27
70930;BME280;58588;48.102;19.682;2023-12-28T13:31:54;99871.47;;;15.06;68.42
70930;BME280;58588;48.102;19.682;2023-12-28T13:34:56;99871.81;;;14.77;69.67
70930;BME280;58588;48.102;19.682;2023-12-28T13:37:59;99870.66;;;14.51;69.13
70930;BME280;58588;48.102;19.682;2023-12-28T13:41:02;99866.63;;;14.88;67.86
70930;BME280;58588;48.102;19.682;2023-12-28T13:44:04;99866.94;;;14.59;70.48
70930;BME280;58588;48.102;19.682;2023-12-28T13:47:10;99866.72;;;14.19;71.20
70930;BME280;58588;48.102;19.682;2023-12-28T13:50:13;99864.56;;;14.08;72.32
70930;BME280;58588;48.102;19.682;2023-12-28T13:53:16;99870.41;;;14.05;72.37
70930;BME280;58588;48.102;19.682;2023-12-28T13:56:18;99868.25;;;13.93;72.14
70930;BME280;58588;48.102;19.682;2023-12-28T13:59:20;99871.19;;;13.71;72.71
70930;BME280;58588;48.102;19.682;2023-12-28T14:02:22;99877.50;;;13.78;72.73
70930;BME280;58588;48.102;19.682;2023-12-28T14:05:24;99890.38;;;13.69;73.14
70930;BME280;58588;48.102;19.682;2023-12-28T14:08:27;99898.13;;;13.79;72.66
70930;BME280;58588;48.102;19.682;2023-12-28T14:11:29;99894.69;;;13.63;73.03
70930;BME280;58588;48.102;19.682;2023-12-28T14:14:31;99897.69;;;13.26;73.83
70930;BME280;58588;48.102;19.682;2023-12-28T14:17:33;99895.56;;;12.85;74.12
70930;BME280;58588;48.102;19.682;2023-12-28T14:20:35;99881.88;;;13.08;73.53
70930;BME280;58588;48.102;19.682;2023-12-28T14:23:40;99880.38;;;12.69;74.63
70930;BME280;58588;48.102;19.682;2023-12-28T14:26:42;99887.38;;;12.64;74.68
70930;BME280;58588;48.102;19.682;2023-12-28T14:29:46;99871.63;;;12.67;74.63
70930;BME280;58588;48.102;19.682;2023-12-28T14:32:52;99866.47;;;12.21;75.44
70930;BME280;58588;48.102;19.682;2023-12-28T14:35:55;99870.09;;;12.14;75.81
70930;BME280;58588;48.102;19.682;2023-12-28T14:38:58;99876.72;;;12.11;76.05
70930;BME280;58588;48.102;19.682;2023-12-28T14:42:04;99872.59;;;11.86;76.59
70930;BME280;58588;48.102;19.682;2023-12-28T14:45:11;99880.84;;;11.32;78.03
70930;BME280;58588;48.102;19.682;2023-12-28T14:48:13;99868.03;;;11.48;78.22
70930;BME280;58588;48.102;19.682;2023-12-28T14:51:15;99867.59;;;11.22;79.30
70930;BME280;58588;48.102;19.682;2023-12-28T14:54:19;99868.25;;;11.24;78.92
70930;BME280;58588;48.102;19.682;2023-12-28T14:57:26;99855.59;;;11.24;78.97
70930;BME280;58588;48.102;19.682;2023-12-28T15:00:28;99855.69;;;11.16;78.71
70930;BME280;58588;48.102;19.682;2023-12-28T15:03:30;99865.38;;;11.03;78.16
70930;BME280;58588;48.102;19.682;2023-12-28T15:06:32;99848.19;;;11.04;78.89
70930;BME280;58588;48.102;19.682;2023-12-28T15:09:36;99858.91;;;10.89;78.88
70930;BME280;58588;48.102;19.682;2023-12-28T15:12:38;99860.53;;;10.67;78.82
70930;BME280;58588;48.102;19.682;2023-12-28T15:15:41;99859.38;;;10.69;79.42
70930;BME280;58588;48.102;19.682;2023-12-28T15:18:44;99861.34;;;10.44;79.65
70930;BME280;58588;48.102;19.682;2023-12-28T15:21:47;99866.31;;;10.25;80.07
70930;BME280;58588;48.102;19.682;2023-12-28T15:24:51;99879.25;;;10.29;79.52
70930;BME280;58588;48.102;19.682;2023-12-28T15:27:53;99891.56;;;10.24;78.95
70930;BME280;58588;48.102;19.682;2023-12-28T15:30:55;99886.56;;;10.04;79.48
70930;BME280;58588;48.102;19.682;2023-12-28T15:33:57;99907.50;;;9.78;81.51
70930;BME280;58588;48.102;19.682;2023-12-28T15:36:59;99918.75;;;9.65;81.87
70930;BME280;58588;48.102;19.682;2023-12-28T15:40:02;99918.13;;;9.55;81.87
70930;BME280;58588;48.102;19.682;2023-12-28T15:43:05;99912.56;;;9.48;82.02
70930;BME280;58588;48.102;19.682;2023-12-28T15:46:07;99914.41;;;9.31;81.21
70930;BME280;58588;48.102;19.682;2023-12-28T15:49:08;99897.72;;;9.03;80.66
70930;BME280;58588;48.102;19.682;2023-12-28T15:52:10;99883.81;;;9.00;81.00
70930;BME280;58588;48.102;19.682;2023-12-28T15:55:14;99905.28;;;8.83;79.78
70930;BME280;58588;48.102;19.682;2023-12-28T15:58:16;99912.31;;;8.34;81.34